sensor_id;sensor_type;location;lat;lon;timestamp;temperature;humidity
36990;DHT22;22898;52.102;5.776;2022-09-09T00:04:53;23.40;91.70
36990;DHT22;22898;52.102;5.776;2022-09-09T00:07:50;23.50;91.40
36990;DHT22;22898;52.102;5.776;2022-09-09T00:10:30;23.40;91.40
36990;DHT22;22898;52.102;5.776;2022-09-09T00:13:25;23.50;91.60
36990;DHT22;22898;52.102;5.776;2022-09-09T00:21:43;23.50;91.40
36990;DHT22;22898;52.102;5.776;2022-09-09T00:24:34;23.60;91.50
36990;DHT22;22898;52.102;5.776;2022-09-09T00:27:27;23.60;91.20
36990;DHT22;22898;52.102;5.776;2022-09-09T00:32:29;23.50;91.20
36990;DHT22;22898;52.102;5.776;2022-09-09T00:35:21;23.50;91.10
36990;DHT22;22898;52.102;5.776;2022-09-09T00:37:48;23.50;91.20
36990;DHT22;22898;52.102;5.776;2022-09-09T00:40:29;23.30;91.30
36990;DHT22;22898;52.102;5.776;2022-09-09T00:43:29;23.30;91.40
36990;DHT22;22898;52.102;5.776;2022-09-09T00:46:16;23.30;91.50
36990;DHT22;22898;52.102;5.776;2022-09-09T00:54:29;23.20;91.50
36990;DHT22;22898;52.102;5.776;2022-09-09T00:57:34;23.10;91.50
36990;DHT22;22898;52.102;5.776;2022-09-09T01:02:39;23.00;91.60
36990;DHT22;22898;52.102;5.776;2022-09-09T01:05:26;23.00;91.70
36990;DHT22;22898;52.102;5.776;2022-09-09T01:07:53;23.00;91.80
36990;DHT22;22898;52.102;5.776;2022-09-09T01:10:51;23.00;91.50
36990;DHT22;22898;52.102;5.776;2022-09-09T01:13:35;23.10;91.50
36990;DHT22;22898;52.102;5.776;2022-09-09T01:16:03;23.00;91.40
36990;DHT22;22898;52.102;5.776;2022-09-09T01:18:33;23.00;91.40
36990;DHT22;22898;52.102;5.776;2022-09-09T01:21:50;23.00;91.30
36990;DHT22;22898;52.102;5.776;2022-09-09T01:24:38;23.00;91.30
36990;DHT22;22898;52.102;5.776;2022-09-09T01:27:06;22.80;91.50
36990;DHT22;22898;52.102;5.776;2022-09-09T01:29:33;22.90;91.40
36990;DHT22;22898;52.102;5.776;2022-09-09T01:32:37;22.80;91.60
36990;DHT22;22898;52.102;5.776;2022-09-09T01:34:50;22.80;91.40
36990;DHT22;22898;52.102;5.776;2022-09-09T01:37:16;22.80;91.50
36990;DHT22;22898;52.102;5.776;2022-09-09T01:39:43;22.80;91.60
36990;DHT22;22898;52.102;5.776;2022-09-09T01:42:13;22.80;91.60
36990;DHT22;22898;52.102;5.776;2022-09-09T01:44:40;22.70;91.60
36990;DHT22;22898;52.102;5.776;2022-09-09T01:47:06;22.60;91.50
36990;DHT22;22898;52.102;5.776;2022-09-09T01:49:32;22.60;91.70
36990;DHT22;22898;52.102;5.776;2022-09-09T01:51:58;22.60;91.60
36990;DHT22;22898;52.102;5.776;2022-09-09T01:54:28;22.60;91.50
36990;DHT22;22898;52.102;5.776;2022-09-09T01:59:50;22.50;91.60
36990;DHT22;22898;52.102;5.776;2022-09-09T02:02:36;22.50;91.50
36990;DHT22;22898;52.102;5.776;2022-09-09T02:07:43;22.50;91.60
36990;DHT22;22898;52.102;5.776;2022-09-09T02:10:12;22.40;91.60
36990;DHT22;22898;52.102;5.776;2022-09-09T02:12:44;22.30;91.60
36990;DHT22;22898;52.102;5.776;2022-09-09T02:15:23;22.30;91.60
36990;DHT22;22898;52.102;5.776;2022-09-09T02:17:52;22.40;91.70
36990;DHT22;22898;52.102;5.776;2022-09-09T02:20:19;22.30;91.80
36990;DHT22;22898;52.102;5.776;2022-09-09T02:22:47;22.30;91.70
36990;DHT22;22898;52.102;5.776;2022-09-09T02:25:17;22.30;91.70
36990;DHT22;22898;52.102;5.776;2022-09-09T02:27:45;22.30;91.60
36990;DHT22;22898;52.102;5.776;2022-09-09T02:30:13;22.20;91.60
36990;DHT22;22898;52.102;5.776;2022-09-09T02:32:40;22.20;91.70
36990;DHT22;22898;52.102;5.776;2022-09-09T02:35:13;22.20;91.70
36990;DHT22;22898;52.102;5.776;2022-09-09T02:37:42;22.20;91.80
36990;DHT22;22898;52.102;5.776;2022-09-09T02:40:10;22.10;91.80
36990;DHT22;22898;52.102;5.776;2022-09-09T02:42:45;22.10;91.60
36990;DHT22;22898;52.102;5.776;2022-09-09T02:45:14;22.00;91.80
36990;DHT22;22898;52.102;5.776;2022-09-09T02:50:13;21.90;92.00
36990;DHT22;22898;52.102;5.776;2022-09-09T02:55:41;21.90;91.90
36990;DHT22;22898;52.102;5.776;2022-09-09T02:58:13;22.00;91.80
36990;DHT22;22898;52.102;5.776;2022-09-09T03:00:44;21.90;91.80
36990;DHT22;22898;52.102;5.776;2022-09-09T03:03:11;22.00;91.70
36990;DHT22;22898;52.102;5.776;2022-09-09T03:05:37;22.00;91.60
36990;DHT22;22898;52.102;5.776;2022-09-09T03:08:04;22.00;91.40
36990;DHT22;22898;52.102;5.776;2022-09-09T03:10:31;21.90;91.60
36990;DHT22;22898;52.102;5.776;2022-09-09T03:12:57;21.90;91.60
36990;DHT22;22898;52.102;5.776;2022-09-09T03:15:22;21.90;91.70
36990;DHT22;22898;52.102;5.776;2022-09-09T03:17:48;21.80;91.70
36990;DHT22;22898;52.102;5.776;2022-09-09T03:20:14;21.70;91.80
36990;DHT22;22898;52.102;5.776;2022-09-09T03:22:40;21.50;92.30
36990;DHT22;22898;52.102;5.776;2022-09-09T03:25:06;21.50;92.20
36990;DHT22;22898;52.102;5.776;2022-09-09T03:27:31;21.50;92.20
36990;DHT22;22898;52.102;5.776;2022-09-09T03:29:57;21.60;92.00
36990;DHT22;22898;52.102;5.776;2022-09-09T03:32:23;21.60;91.90
36990;DHT22;22898;52.102;5.776;2022-09-09T03:34:51;21.60;91.80
36990;DHT22;22898;52.102;5.776;2022-09-09T03:37:17;21.70;92.10
36990;DHT22;22898;52.102;5.776;2022-09-09T03:39:44;21.60;91.70
36990;DHT22;22898;52.102;5.776;2022-09-09T03:42:11;21.70;91.60
36990;DHT22;22898;52.102;5.776;2022-09-09T03:44:37;21.70;91.50
36990;DHT22;22898;52.102;5.776;2022-09-09T03:47:03;21.60;91.50
36990;DHT22;22898;52.102;5.776;2022-09-09T03:49:28;21.60;91.40
36990;DHT22;22898;52.102;5.776;2022-09-09T03:51:55;21.50;91.60
36990;DHT22;22898;52.102;5.776;2022-09-09T03:54:23;21.40;91.90
36990;DHT22;22898;52.102;5.776;2022-09-09T03:56:49;21.40;92.00
36990;DHT22;22898;52.102;5.776;2022-09-09T03:59:14;21.40;92.00
36990;DHT22;22898;52.102;5.776;2022-09-09T04:01:40;21.50;92.00
36990;DHT22;22898;52.102;5.776;2022-09-09T04:04:05;21.50;92.10
36990;DHT22;22898;52.102;5.776;2022-09-09T04:06:31;21.50;92.10
36990;DHT22;22898;52.102;5.776;2022-09-09T04:08:56;21.60;92.20
36990;DHT22;22898;52.102;5.776;2022-09-09T04:11:22;21.60;92.10
36990;DHT22;22898;52.102;5.776;2022-09-09T04:13:48;21.60;92.30
36990;DHT22;22898;52.102;5.776;2022-09-09T04:16:14;21.60;92.40
36990;DHT22;22898;52.102;5.776;2022-09-09T04:18:40;21.50;92.50
36990;DHT22;22898;52.102;5.776;2022-09-09T04:21:07;21.40;92.80
36990;DHT22;22898;52.102;5.776;2022-09-09T04:23:33;21.40;93.00
36990;DHT22;22898;52.102;5.776;2022-09-09T04:26:01;21.30;93.10
36990;DHT22;22898;52.102;5.776;2022-09-09T04:28:29;21.40;93.00
36990;DHT22;22898;52.102;5.776;2022-09-09T04:30:56;21.50;92.80
36990;DHT22;22898;52.102;5.776;2022-09-09T04:33:25;21.50;92.70
36990;DHT22;22898;52.102;5.776;2022-09-09T04:35:52;21.60;92.60
36990;DHT22;22898;52.102;5.776;2022-09-09T04:38:19;21.50;92.70
36990;DHT22;22898;52.102;5.776;2022-09-09T04:40:50;21.50;92.80
36990;DHT22;22898;52.102;5.776;2022-09-09T04:43:17;21.40;93.10
36990;DHT22;22898;52.102;5.776;2022-09-09T04:45:47;21.40;93.00
36990;DHT22;22898;52.102;5.776;2022-09-09T04:48:13;21.50;92.90
36990;DHT22;22898;52.102;5.776;2022-09-09T04:50:39;21.50;93.00
36990;DHT22;22898;52.102;5.776;2022-09-09T04:53:06;21.50;93.10
36990;DHT22;22898;52.102;5.776;2022-09-09T04:55:32;21.60;92.90
36990;DHT22;22898;52.102;5.776;2022-09-09T04:58:06;21.80;92.70
36990;DHT22;22898;52.102;5.776;2022-09-09T05:00:33;21.80;92.70
36990;DHT22;22898;52.102;5.776;2022-09-09T05:03:03;21.80;92.70
36990;DHT22;22898;52.102;5.776;2022-09-09T05:05:29;21.70;92.80
36990;DHT22;22898;52.102;5.776;2022-09-09T05:08:06;21.60;92.90
36990;DHT22;22898;52.102;5.776;2022-09-09T05:10:36;21.70;92.70
36990;DHT22;22898;52.102;5.776;2022-09-09T05:13:02;21.80;92.70
36990;DHT22;22898;52.102;5.776;2022-09-09T05:15:28;21.80;92.60
36990;DHT22;22898;52.102;5.776;2022-09-09T05:17:58;21.90;92.60
36990;DHT22;22898;52.102;5.776;2022-09-09T05:20:24;21.80;92.80
36990;DHT22;22898;52.102;5.776;2022-09-09T05:22:53;21.90;92.80
36990;DHT22;22898;52.102;5.776;2022-09-09T05:25:19;22.00;92.60
36990;DHT22;22898;52.102;5.776;2022-09-09T05:27:44;22.00;92.60
36990;DHT22;22898;52.102;5.776;2022-09-09T05:30:10;22.10;92.60
36990;DHT22;22898;52.102;5.776;2022-09-09T05:32:36;22.20;92.40
36990;DHT22;22898;52.102;5.776;2022-09-09T05:35:02;22.10;92.50
36990;DHT22;22898;52.102;5.776;2022-09-09T05:37:28;22.20;92.40
36990;DHT22;22898;52.102;5.776;2022-09-09T05:39:55;22.20;92.40
36990;DHT22;22898;52.102;5.776;2022-09-09T05:42:20;22.20;92.60
36990;DHT22;22898;52.102;5.776;2022-09-09T05:44:46;22.10;92.70
36990;DHT22;22898;52.102;5.776;2022-09-09T05:47:11;22.20;92.60
36990;DHT22;22898;52.102;5.776;2022-09-09T05:49:37;22.20;92.60
36990;DHT22;22898;52.102;5.776;2022-09-09T05:52:02;22.20;92.60
36990;DHT22;22898;52.102;5.776;2022-09-09T05:54:29;22.20;92.80
36990;DHT22;22898;52.102;5.776;2022-09-09T05:56:55;22.20;92.70
36990;DHT22;22898;52.102;5.776;2022-09-09T05:59:21;22.20;92.80
36990;DHT22;22898;52.102;5.776;2022-09-09T06:01:48;22.20;92.90
36990;DHT22;22898;52.102;5.776;2022-09-09T06:04:14;22.20;93.00
36990;DHT22;22898;52.102;5.776;2022-09-09T06:06:40;22.30;92.90
36990;DHT22;22898;52.102;5.776;2022-09-09T06:09:08;22.30;93.10
36990;DHT22;22898;52.102;5.776;2022-09-09T06:11:38;22.20;93.00
36990;DHT22;22898;52.102;5.776;2022-09-09T06:14:05;22.20;93.40
36990;DHT22;22898;52.102;5.776;2022-09-09T06:16:31;22.20;93.50
36990;DHT22;22898;52.102;5.776;2022-09-09T06:18:58;22.20;93.60
36990;DHT22;22898;52.102;5.776;2022-09-09T06:23:50;22.30;93.50
36990;DHT22;22898;52.102;5.776;2022-09-09T06:26:24;22.40;93.20
36990;DHT22;22898;52.102;5.776;2022-09-09T06:28:52;22.40;93.40
36990;DHT22;22898;52.102;5.776;2022-09-09T06:31:20;22.50;93.50
36990;DHT22;22898;52.102;5.776;2022-09-09T06:33:48;22.60;93.50
36990;DHT22;22898;52.102;5.776;2022-09-09T06:36:19;22.60;93.60
36990;DHT22;22898;52.102;5.776;2022-09-09T06:38:45;22.70;93.40
36990;DHT22;22898;52.102;5.776;2022-09-09T06:41:13;22.70;93.50
36990;DHT22;22898;52.102;5.776;2022-09-09T06:43:39;22.80;93.10
36990;DHT22;22898;52.102;5.776;2022-09-09T06:48:33;22.80;93.00
36990;DHT22;22898;52.102;5.776;2022-09-09T06:51:13;22.70;93.50
36990;DHT22;22898;52.102;5.776;2022-09-09T06:53:41;22.70;93.40
36990;DHT22;22898;52.102;5.776;2022-09-09T06:58:36;22.80;93.60
36990;DHT22;22898;52.102;5.776;2022-09-09T07:01:04;22.80;93.50
36990;DHT22;22898;52.102;5.776;2022-09-09T07:03:29;22.80;93.70
36990;DHT22;22898;52.102;5.776;2022-09-09T07:05:56;22.80;93.70
36990;DHT22;22898;52.102;5.776;2022-09-09T07:08:22;22.80;93.70
36990;DHT22;22898;52.102;5.776;2022-09-09T07:10:47;22.90;93.60
36990;DHT22;22898;52.102;5.776;2022-09-09T07:13:13;23.00;93.50
36990;DHT22;22898;52.102;5.776;2022-09-09T07:15:41;23.00;93.50
36990;DHT22;22898;52.102;5.776;2022-09-09T07:18:07;23.00;93.50
36990;DHT22;22898;52.102;5.776;2022-09-09T07:20:32;23.00;93.50
36990;DHT22;22898;52.102;5.776;2022-09-09T07:22:58;23.00;93.70
36990;DHT22;22898;52.102;5.776;2022-09-09T07:25:24;23.10;93.80
36990;DHT22;22898;52.102;5.776;2022-09-09T07:27:53;23.00;93.60
36990;DHT22;22898;52.102;5.776;2022-09-09T07:30:19;22.80;94.00
36990;DHT22;22898;52.102;5.776;2022-09-09T07:32:45;22.70;93.90
36990;DHT22;22898;52.102;5.776;2022-09-09T07:35:10;22.60;94.20
36990;DHT22;22898;52.102;5.776;2022-09-09T07:37:37;22.80;94.30
36990;DHT22;22898;52.102;5.776;2022-09-09T07:40:03;23.10;94.00
36990;DHT22;22898;52.102;5.776;2022-09-09T07:42:29;23.10;93.60
36990;DHT22;22898;52.102;5.776;2022-09-09T07:44:55;23.10;93.40
36990;DHT22;22898;52.102;5.776;2022-09-09T07:47:20;23.10;93.80
36990;DHT22;22898;52.102;5.776;2022-09-09T07:49:47;23.30;93.30
36990;DHT22;22898;52.102;5.776;2022-09-09T07:52:15;23.30;93.40
36990;DHT22;22898;52.102;5.776;2022-09-09T07:54:41;23.50;93.00
36990;DHT22;22898;52.102;5.776;2022-09-09T07:57:07;23.60;92.80
36990;DHT22;22898;52.102;5.776;2022-09-09T07:59:33;23.60;92.70
36990;DHT22;22898;52.102;5.776;2022-09-09T08:01:59;23.40;93.00
36990;DHT22;22898;52.102;5.776;2022-09-09T08:04:25;23.50;92.80
36990;DHT22;22898;52.102;5.776;2022-09-09T08:06:59;23.50;92.70
36990;DHT22;22898;52.102;5.776;2022-09-09T08:09:26;23.40;93.10
36990;DHT22;22898;52.102;5.776;2022-09-09T08:11:54;23.50;93.00
36990;DHT22;22898;52.102;5.776;2022-09-09T08:14:22;23.50;92.90
36990;DHT22;22898;52.102;5.776;2022-09-09T08:16:49;23.50;92.70
36990;DHT22;22898;52.102;5.776;2022-09-09T08:19:15;23.60;92.30
36990;DHT22;22898;52.102;5.776;2022-09-09T08:21:42;23.60;92.40
36990;DHT22;22898;52.102;5.776;2022-09-09T08:24:09;23.60;92.50
36990;DHT22;22898;52.102;5.776;2022-09-09T08:26:42;23.70;92.50
36990;DHT22;22898;52.102;5.776;2022-09-09T08:29:10;23.70;92.10
36990;DHT22;22898;52.102;5.776;2022-09-09T08:31:59;23.90;92.00
36990;DHT22;22898;52.102;5.776;2022-09-09T08:34:24;24.00;92.20
36990;DHT22;22898;52.102;5.776;2022-09-09T08:36:52;24.10;91.80
36990;DHT22;22898;52.102;5.776;2022-09-09T08:39:20;24.30;91.30
36990;DHT22;22898;52.102;5.776;2022-09-09T08:42:24;24.50;90.90
36990;DHT22;22898;52.102;5.776;2022-09-09T08:47:55;24.20;91.10
36990;DHT22;22898;52.102;5.776;2022-09-09T08:50:30;24.10;91.30
36990;DHT22;22898;52.102;5.776;2022-09-09T08:53:12;24.00;91.20
36990;DHT22;22898;52.102;5.776;2022-09-09T08:58:26;24.00;91.50
36990;DHT22;22898;52.102;5.776;2022-09-09T09:03:47;24.10;91.20
36990;DHT22;22898;52.102;5.776;2022-09-09T09:11:21;24.50;90.90
36990;DHT22;22898;52.102;5.776;2022-09-09T09:16:29;24.50;90.60
36990;DHT22;22898;52.102;5.776;2022-09-09T09:18:58;24.40;90.50
36990;DHT22;22898;52.102;5.776;2022-09-09T09:24:10;24.40;90.50
36990;DHT22;22898;52.102;5.776;2022-09-09T09:26:37;24.40;90.40
36990;DHT22;22898;52.102;5.776;2022-09-09T09:29:15;24.50;90.40
36990;DHT22;22898;52.102;5.776;2022-09-09T09:31:47;24.80;89.90
36990;DHT22;22898;52.102;5.776;2022-09-09T09:34:13;24.70;89.30
36990;DHT22;22898;52.102;5.776;2022-09-09T09:36:43;24.60;89.80
36990;DHT22;22898;52.102;5.776;2022-09-09T09:39:10;24.80;88.30
36990;DHT22;22898;52.102;5.776;2022-09-09T09:41:38;24.70;89.20
36990;DHT22;22898;52.102;5.776;2022-09-09T09:44:18;24.60;89.10
36990;DHT22;22898;52.102;5.776;2022-09-09T09:46:46;24.70;89.00
36990;DHT22;22898;52.102;5.776;2022-09-09T09:49:12;24.70;89.00
36990;DHT22;22898;52.102;5.776;2022-09-09T09:51:39;24.60;88.60
36990;DHT22;22898;52.102;5.776;2022-09-09T09:54:17;24.60;88.70
36990;DHT22;22898;52.102;5.776;2022-09-09T09:56:44;24.70;88.60
36990;DHT22;22898;52.102;5.776;2022-09-09T10:01:46;24.90;87.10
36990;DHT22;22898;52.102;5.776;2022-09-09T10:04:20;25.10;86.90
36990;DHT22;22898;52.102;5.776;2022-09-09T10:06:47;25.40;87.30
36990;DHT22;22898;52.102;5.776;2022-09-09T10:09:25;25.40;87.30
36990;DHT22;22898;52.102;5.776;2022-09-09T10:23:02;25.20;86.20
36990;DHT22;22898;52.102;5.776;2022-09-09T10:25:35;25.10;86.60
36990;DHT22;22898;52.102;5.776;2022-09-09T10:31:19;24.60;87.90
36990;DHT22;22898;52.102;5.776;2022-09-09T10:34:04;24.60;87.40
36990;DHT22;22898;52.102;5.776;2022-09-09T10:36:32;24.70;87.10
36990;DHT22;22898;52.102;5.776;2022-09-09T10:39:05;24.80;86.70
36990;DHT22;22898;52.102;5.776;2022-09-09T10:42:06;24.60;86.50
36990;DHT22;22898;52.102;5.776;2022-09-09T10:50:29;24.00;88.50
36990;DHT22;22898;52.102;5.776;2022-09-09T10:55:58;24.40;88.10
36990;DHT22;22898;52.102;5.776;2022-09-09T10:58:36;24.50;87.30
36990;DHT22;22898;52.102;5.776;2022-09-09T11:01:17;24.40;88.20
36990;DHT22;22898;52.102;5.776;2022-09-09T11:03:46;23.90;90.80
36990;DHT22;22898;52.102;5.776;2022-09-09T11:06:19;23.80;91.10
36990;DHT22;22898;52.102;5.776;2022-09-09T11:08:47;23.10;93.00
36990;DHT22;22898;52.102;5.776;2022-09-09T11:11:27;23.40;92.90
36990;DHT22;22898;52.102;5.776;2022-09-09T11:14:18;23.90;92.30
36990;DHT22;22898;52.102;5.776;2022-09-09T11:16:58;24.20;91.60
36990;DHT22;22898;52.102;5.776;2022-09-09T11:27:53;25.00;90.70
36990;DHT22;22898;52.102;5.776;2022-09-09T11:36:06;24.90;90.70
36990;DHT22;22898;52.102;5.776;2022-09-09T11:38:47;24.80;91.10
36990;DHT22;22898;52.102;5.776;2022-09-09T11:41:14;24.60;91.60
36990;DHT22;22898;52.102;5.776;2022-09-09T11:46:09;24.80;92.00
36990;DHT22;22898;52.102;5.776;2022-09-09T11:48:37;24.80;92.10
36990;DHT22;22898;52.102;5.776;2022-09-09T11:51:30;25.10;92.00
36990;DHT22;22898;52.102;5.776;2022-09-09T11:54:00;25.20;92.10
36990;DHT22;22898;52.102;5.776;2022-09-09T11:56:42;25.50;91.50
36990;DHT22;22898;52.102;5.776;2022-09-09T11:59:28;25.50;91.90
36990;DHT22;22898;52.102;5.776;2022-09-09T12:01:56;25.70;91.40
36990;DHT22;22898;52.102;5.776;2022-09-09T12:07:04;25.70;90.40
36990;DHT22;22898;52.102;5.776;2022-09-09T12:17:44;25.40;91.10
36990;DHT22;22898;52.102;5.776;2022-09-09T12:20:23;25.40;91.00
36990;DHT22;22898;52.102;5.776;2022-09-09T12:31:26;25.20;90.40
36990;DHT22;22898;52.102;5.776;2022-09-09T12:33:53;25.10;90.50
36990;DHT22;22898;52.102;5.776;2022-09-09T12:36:23;25.20;90.70
36990;DHT22;22898;52.102;5.776;2022-09-09T12:38:50;25.40;90.70
36990;DHT22;22898;52.102;5.776;2022-09-09T12:41:23;25.40;90.20
36990;DHT22;22898;52.102;5.776;2022-09-09T12:43:50;25.70;90.40
36990;DHT22;22898;52.102;5.776;2022-09-09T12:48:57;25.50;89.90
36990;DHT22;22898;52.102;5.776;2022-09-09T12:51:29;25.50;90.10
36990;DHT22;22898;52.102;5.776;2022-09-09T12:53:56;25.70;90.00
36990;DHT22;22898;52.102;5.776;2022-09-09T12:56:27;25.70;88.70
36990;DHT22;22898;52.102;5.776;2022-09-09T12:58:56;25.60;89.60
36990;DHT22;22898;52.102;5.776;2022-09-09T13:01:27;25.70;89.80
36990;DHT22;22898;52.102;5.776;2022-09-09T13:03:54;25.90;90.10
36990;DHT22;22898;52.102;5.776;2022-09-09T13:06:24;26.00;89.50
36990;DHT22;22898;52.102;5.776;2022-09-09T13:08:52;26.00;89.40
36990;DHT22;22898;52.102;5.776;2022-09-09T13:13:55;26.20;87.90
36990;DHT22;22898;52.102;5.776;2022-09-09T13:16:30;26.30;87.00
36990;DHT22;22898;52.102;5.776;2022-09-09T13:19:13;26.40;86.40
36990;DHT22;22898;52.102;5.776;2022-09-09T13:21:58;26.30;86.70
36990;DHT22;22898;52.102;5.776;2022-09-09T13:24:31;26.20;86.60
36990;DHT22;22898;52.102;5.776;2022-09-09T13:26:59;26.20;86.50
36990;DHT22;22898;52.102;5.776;2022-09-09T13:29:27;25.80;87.50
36990;DHT22;22898;52.102;5.776;2022-09-09T13:31:53;25.80;87.30
36990;DHT22;22898;52.102;5.776;2022-09-09T13:34:30;25.80;87.50
36990;DHT22;22898;52.102;5.776;2022-09-09T13:37:03;25.50;87.50
36990;DHT22;22898;52.102;5.776;2022-09-09T13:39:34;24.90;89.10
36990;DHT22;22898;52.102;5.776;2022-09-09T13:42:02;24.50;90.40
36990;DHT22;22898;52.102;5.776;2022-09-09T13:44:39;24.70;90.00
36990;DHT22;22898;52.102;5.776;2022-09-09T13:47:19;24.80;90.00
36990;DHT22;22898;52.102;5.776;2022-09-09T13:49:45;24.90;89.50
36990;DHT22;22898;52.102;5.776;2022-09-09T13:52:15;25.00;89.50
36990;DHT22;22898;52.102;5.776;2022-09-09T13:54:42;24.90;90.00
36990;DHT22;22898;52.102;5.776;2022-09-09T13:57:26;24.90;88.80
36990;DHT22;22898;52.102;5.776;2022-09-09T13:59:53;24.90;89.90
36990;DHT22;22898;52.102;5.776;2022-09-09T14:02:20;24.80;90.00
36990;DHT22;22898;52.102;5.776;2022-09-09T14:04:48;24.80;90.10
36990;DHT22;22898;52.102;5.776;2022-09-09T14:07:17;25.10;90.00
36990;DHT22;22898;52.102;5.776;2022-09-09T14:09:43;25.30;89.10
36990;DHT22;22898;52.102;5.776;2022-09-09T14:12:10;25.80;88.10
36990;DHT22;22898;52.102;5.776;2022-09-09T14:14:36;25.90;86.50
36990;DHT22;22898;52.102;5.776;2022-09-09T14:17:02;26.10;86.60
36990;DHT22;22898;52.102;5.776;2022-09-09T14:19:28;26.20;86.20
36990;DHT22;22898;52.102;5.776;2022-09-09T14:21:54;26.10;85.50
36990;DHT22;22898;52.102;5.776;2022-09-09T14:24:19;26.20;86.10
36990;DHT22;22898;52.102;5.776;2022-09-09T14:26:45;26.30;85.10
36990;DHT22;22898;52.102;5.776;2022-09-09T14:29:11;26.20;84.70
36990;DHT22;22898;52.102;5.776;2022-09-09T14:31:36;26.20;85.00
36990;DHT22;22898;52.102;5.776;2022-09-09T14:34:02;26.40;83.80
36990;DHT22;22898;52.102;5.776;2022-09-09T14:36:27;26.00;83.90
36990;DHT22;22898;52.102;5.776;2022-09-09T14:38:53;25.60;84.90
36990;DHT22;22898;52.102;5.776;2022-09-09T14:41:19;25.70;86.10
36990;DHT22;22898;52.102;5.776;2022-09-09T14:43:47;25.80;84.80
36990;DHT22;22898;52.102;5.776;2022-09-09T14:46:15;25.70;86.00
36990;DHT22;22898;52.102;5.776;2022-09-09T14:48:41;25.80;85.40
36990;DHT22;22898;52.102;5.776;2022-09-09T14:51:12;26.20;84.80
36990;DHT22;22898;52.102;5.776;2022-09-09T14:53:40;26.40;83.90
36990;DHT22;22898;52.102;5.776;2022-09-09T14:56:17;26.30;84.50
36990;DHT22;22898;52.102;5.776;2022-09-09T14:58:43;26.50;83.50
36990;DHT22;22898;52.102;5.776;2022-09-09T15:01:15;26.70;82.80
36990;DHT22;22898;52.102;5.776;2022-09-09T15:03:41;26.40;83.30
36990;DHT22;22898;52.102;5.776;2022-09-09T15:06:13;26.50;83.80
36990;DHT22;22898;52.102;5.776;2022-09-09T15:08:42;26.60;82.70
36990;DHT22;22898;52.102;5.776;2022-09-09T15:11:10;26.50;83.50
36990;DHT22;22898;52.102;5.776;2022-09-09T15:13:36;26.40;84.00
36990;DHT22;22898;52.102;5.776;2022-09-09T15:16:10;26.50;84.30
36990;DHT22;22898;52.102;5.776;2022-09-09T15:18:36;26.50;84.10
36990;DHT22;22898;52.102;5.776;2022-09-09T15:21:05;26.60;84.30
36990;DHT22;22898;52.102;5.776;2022-09-09T15:23:32;26.80;83.90
36990;DHT22;22898;52.102;5.776;2022-09-09T15:25:58;26.90;83.60
36990;DHT22;22898;52.102;5.776;2022-09-09T15:28:24;27.00;83.20
36990;DHT22;22898;52.102;5.776;2022-09-09T15:30:50;27.10;83.70
36990;DHT22;22898;52.102;5.776;2022-09-09T15:33:17;27.20;83.60
36990;DHT22;22898;52.102;5.776;2022-09-09T15:35:43;27.20;83.20
36990;DHT22;22898;52.102;5.776;2022-09-09T15:38:08;26.80;85.10
36990;DHT22;22898;52.102;5.776;2022-09-09T15:40:34;26.50;85.30
36990;DHT22;22898;52.102;5.776;2022-09-09T15:43:00;26.50;85.60
36990;DHT22;22898;52.102;5.776;2022-09-09T15:45:25;26.60;85.70
36990;DHT22;22898;52.102;5.776;2022-09-09T15:47:52;26.60;85.40
36990;DHT22;22898;52.102;5.776;2022-09-09T15:50:17;26.40;86.10
36990;DHT22;22898;52.102;5.776;2022-09-09T15:52:43;26.30;86.10
36990;DHT22;22898;52.102;5.776;2022-09-09T15:55:09;26.00;86.90
36990;DHT22;22898;52.102;5.776;2022-09-09T15:57:35;25.90;87.00
36990;DHT22;22898;52.102;5.776;2022-09-09T16:00:02;26.00;86.90
36990;DHT22;22898;52.102;5.776;2022-09-09T16:02:28;26.10;87.00
36990;DHT22;22898;52.102;5.776;2022-09-09T16:04:55;26.20;87.40
36990;DHT22;22898;52.102;5.776;2022-09-09T16:07:20;26.00;88.30
36990;DHT22;22898;52.102;5.776;2022-09-09T16:09:46;26.00;88.80
36990;DHT22;22898;52.102;5.776;2022-09-09T16:12:11;26.20;89.00
36990;DHT22;22898;52.102;5.776;2022-09-09T16:14:38;26.30;88.20
36990;DHT22;22898;52.102;5.776;2022-09-09T16:17:05;26.40;88.20
36990;DHT22;22898;52.102;5.776;2022-09-09T16:19:32;26.50;88.40
36990;DHT22;22898;52.102;5.776;2022-09-09T16:21:57;26.40;87.00
36990;DHT22;22898;52.102;5.776;2022-09-09T16:24:23;26.20;87.30
36990;DHT22;22898;52.102;5.776;2022-09-09T16:26:52;26.10;88.20
36990;DHT22;22898;52.102;5.776;2022-09-09T16:29:20;26.10;87.90
36990;DHT22;22898;52.102;5.776;2022-09-09T16:31:47;26.10;87.50
36990;DHT22;22898;52.102;5.776;2022-09-09T16:34:14;25.70;88.80
36990;DHT22;22898;52.102;5.776;2022-09-09T16:36:41;25.60;88.90
36990;DHT22;22898;52.102;5.776;2022-09-09T16:39:09;25.40;89.60
36990;DHT22;22898;52.102;5.776;2022-09-09T16:41:35;25.50;89.50
36990;DHT22;22898;52.102;5.776;2022-09-09T16:44:06;25.40;89.40
36990;DHT22;22898;52.102;5.776;2022-09-09T16:46:35;25.10;89.20
36990;DHT22;22898;52.102;5.776;2022-09-09T16:49:02;24.70;90.60
36990;DHT22;22898;52.102;5.776;2022-09-09T16:51:33;24.60;90.20
36990;DHT22;22898;52.102;5.776;2022-09-09T16:54:00;24.30;90.90
36990;DHT22;22898;52.102;5.776;2022-09-09T16:56:29;24.00;90.10
36990;DHT22;22898;52.102;5.776;2022-09-09T16:59:03;23.80;90.00
36990;DHT22;22898;52.102;5.776;2022-09-09T17:01:31;23.90;90.10
36990;DHT22;22898;52.102;5.776;2022-09-09T17:03:59;23.60;90.10
36990;DHT22;22898;52.102;5.776;2022-09-09T17:06:26;23.50;90.70
36990;DHT22;22898;52.102;5.776;2022-09-09T17:09:00;23.90;89.80
36990;DHT22;22898;52.102;5.776;2022-09-09T17:11:26;23.70;90.00
36990;DHT22;22898;52.102;5.776;2022-09-09T17:13:53;23.60;89.80
36990;DHT22;22898;52.102;5.776;2022-09-09T17:16:21;23.60;90.30
36990;DHT22;22898;52.102;5.776;2022-09-09T17:18:48;24.00;89.70
36990;DHT22;22898;52.102;5.776;2022-09-09T17:21:17;24.40;87.90
36990;DHT22;22898;52.102;5.776;2022-09-09T17:23:43;24.20;89.00
36990;DHT22;22898;52.102;5.776;2022-09-09T17:26:12;24.30;89.00
36990;DHT22;22898;52.102;5.776;2022-09-09T17:28:40;24.50;89.40
36990;DHT22;22898;52.102;5.776;2022-09-09T17:31:07;24.80;88.40
36990;DHT22;22898;52.102;5.776;2022-09-09T17:33:35;25.00;87.90
36990;DHT22;22898;52.102;5.776;2022-09-09T17:36:12;25.20;87.60
36990;DHT22;22898;52.102;5.776;2022-09-09T17:38:38;25.30;87.00
36990;DHT22;22898;52.102;5.776;2022-09-09T17:41:10;25.30;87.20
36990;DHT22;22898;52.102;5.776;2022-09-09T17:43:36;25.40;87.20
36990;DHT22;22898;52.102;5.776;2022-09-09T17:48:35;25.30;88.00
36990;DHT22;22898;52.102;5.776;2022-09-09T17:51:09;25.30;88.60
36990;DHT22;22898;52.102;5.776;2022-09-09T17:53:43;25.30;88.70